Time;durP1;ratioP1;P1;durP2;ratioP2;P2;SDS_P1;SDS_P2;PMS_P1;PMS_P2;Temp;Humidity;BMP_temperature;BMP_pressure;BME280_temperature;BME280_humidity;BME280_pressure;Samples;Min_cycle;Max_cycle;Signal;HPM_P1;HPM_P2
2023/06/07 00:00:59;;;;;;;8.68;3.42;;;11.20;99.90;;;;;;6224677;22;20473;-75
2023/06/07 00:03:25;;;;;;;10.23;4.00;;;11.20;99.90;;;;;;6277630;22;20003;-75
2023/06/07 00:05:51;;;;;;;9.90;4.40;;;11.20;99.90;;;;;;6301743;22;20335;-75
2023/06/07 00:08:18;;;;;;;7.00;3.05;;;11.10;99.90;;;;;;6302408;22;20070;-77
2023/06/07 00:10:43;;;;;;;5.25;2.70;;;11.10;99.90;;;;;;6277553;22;20016;-76
2023/06/07 00:13:09;;;;;;;9.93;3.95;;;11.10;99.90;;;;;;6302297;22;20015;-76
2023/06/07 00:15:35;;;;;;;6.50;2.90;;;11.00;99.90;;;;;;6249838;22;20039;-75
2023/06/07 00:18:01;;;;;;;6.90;3.42;;;11.00;99.90;;;;;;6301796;22;20012;-76
2023/06/07 00:20:27;;;;;;;7.47;3.30;;;11.00;99.90;;;;;;6273716;22;20012;-76
2023/06/07 00:22:58;;;;;;;11.05;4.45;;;10.90;99.90;;;;;;6225207;22;20051;-76
2023/06/07 00:25:24;;;;;;;11.00;4.22;;;10.90;99.90;;;;;;6250696;22;20012;-76
2023/06/07 00:27:49;;;;;;;8.93;3.58;;;10.90;99.90;;;;;;6250126;22;20008;-76
2023/06/07 00:30:17;;;;;;;7.45;2.80;;;10.90;99.90;;;;;;6301212;22;20392;-76
2023/06/07 00:32:43;;;;;;;6.97;3.83;;;10.90;99.90;;;;;;6250409;22;20012;-76
2023/06/07 00:35:11;;;;;;;10.48;4.22;;;10.80;99.90;;;;;;6250257;22;20016;-75
2023/06/07 00:37:37;;;;;;;10.18;4.32;;;10.70;99.90;;;;;;6250243;22;20038;-75
2023/06/07 00:40:03;;;;;;;10.15;4.47;;;10.70;99.90;;;;;;6300964;22;20434;-75
2023/06/07 00:42:29;;;;;;;9.55;4.40;;;10.60;99.90;;;;;;6250587;22;20003;-76
2023/06/07 00:44:55;;;;;;;8.07;2.95;;;10.70;99.90;;;;;;6249859;22;20027;-76
2023/06/07 00:47:21;;;;;;;9.27;3.47;;;10.60;99.90;;;;;;6274997;22;20011;-77
2023/06/07 00:49:47;;;;;;;7.30;2.53;;;10.60;99.90;;;;;;6301311;22;20007;-77
2023/06/07 00:52:13;;;;;;;5.82;2.30;;;10.60;99.90;;;;;;6250126;22;20035;-77
2023/06/07 00:54:40;;;;;;;6.18;2.65;;;10.60;99.90;;;;;;6275665;22;20449;-76
2023/06/07 00:57:06;;;;;;;9.18;3.53;;;10.60;99.90;;;;;;6277040;22;20446;-76
2023/06/07 00:59:31;;;;;;;9.68;3.38;;;10.60;99.90;;;;;;6249466;22;20021;-76
2023/06/07 01:01:57;;;;;;;9.48;4.50;;;10.40;99.90;;;;;;6301891;22;20014;-76
2023/06/07 01:04:26;;;;;;;9.00;3.20;;;10.40;99.90;;;;;;6224185;22;20015;-76
2023/06/07 01:06:52;;;;;;;12.27;3.40;;;10.40;99.90;;;;;;6223783;22;20007;-76
2023/06/07 01:09:19;;;;;;;9.15;3.35;;;10.40;99.90;;;;;;6250257;22;20394;-76
2023/06/07 01:11:49;;;;;;;7.10;3.50;;;10.40;99.90;;;;;;6275114;22;20012;-76
2023/06/07 01:14:16;;;;;;;9.00;3.40;;;10.40;99.90;;;;;;6276910;22;20022;-76
2023/06/07 01:16:48;;;;;;;9.60;3.80;;;10.40;99.90;;;;;;6249238;22;20012;-76
2023/06/07 01:19:21;;;;;;;8.57;3.60;;;10.40;99.90;;;;;;6277329;22;20011;-76
2023/06/07 01:21:50;;;;;;;8.45;3.47;;;10.40;99.90;;;;;;6224502;22;20026;-78
2023/06/07 01:24:18;;;;;;;8.90;3.67;;;10.40;99.90;;;;;;6249485;22;20516;-77
2023/06/07 01:26:56;;;;;;;9.38;3.50;;;10.40;99.90;;;;;;6301616;22;20330;-77
2023/06/07 01:29:24;;;;;;;9.45;3.78;;;10.40;99.90;;;;;;6249445;22;20018;-77
2023/06/07 01:31:51;;;;;;;12.35;4.65;;;10.40;99.90;;;;;;6250110;22;20008;-77
2023/06/07 01:34:19;;;;;;;11.27;4.10;;;10.40;99.90;;;;;;6249678;22;20015;-77
2023/06/07 01:36:47;;;;;;;8.18;3.63;;;10.40;99.90;;;;;;6223999;22;20342;-77
2023/06/07 01:39:14;;;;;;;7.65;3.30;;;10.40;99.90;;;;;;6224464;22;20011;-75
2023/06/07 01:41:41;;;;;;;6.65;3.08;;;10.40;99.90;;;;;;6276449;22;20086;-74
2023/06/07 01:44:08;;;;;;;7.68;3.22;;;10.40;99.90;;;;;;6250093;22;20010;-74
2023/06/07 01:46:34;;;;;;;8.70;3.00;;;10.40;99.90;;;;;;6249188;22;20087;-74
2023/06/07 01:49:00;;;;;;;7.50;3.25;;;10.40;99.90;;;;;;6276290;22;20035;-74
2023/06/07 01:51:26;;;;;;;7.72;3.08;;;10.40;99.90;;;;;;6249484;22;20058;-74
2023/06/07 01:53:51;;;;;;;7.20;2.97;;;10.40;99.90;;;;;;6248215;22;20065;-74
2023/06/07 01:56:26;;;;;;;7.18;2.88;;;10.40;99.90;;;;;;6300408;22;20015;-75
2023/06/07 01:59:03;;;;;;;7.30;2.55;;;10.40;99.90;;;;;;6274843;22;20021;-75
2023/06/07 02:01:47;;;;;;;4.45;2.33;;;10.30;99.90;;;;;;6273924;22;20458;-74
2023/06/07 02:04:18;;;;;;;5.93;2.58;;;10.30;99.90;;;;;;6213418;22;20461;-74
2023/06/07 02:06:45;;;;;;;6.40;2.85;;;10.30;99.90;;;;;;6237151;23;20016;-75
2023/06/07 02:09:12;;;;;;;6.15;2.38;;;10.20;99.90;;;;;;6241610;22;20016;-75
2023/06/07 02:11:41;;;;;;;6.15;2.97;;;10.30;99.90;;;;;;6300276;22;20066;-75
2023/06/07 02:14:08;;;;;;;6.57;3.17;;;10.30;99.90;;;;;;6273120;22;20014;-74
2023/06/07 02:16:35;;;;;;;8.20;3.40;;;10.30;99.90;;;;;;6249483;22;20050;-75
2023/06/07 02:19:12;;;;;;;7.25;3.38;;;10.30;99.90;;;;;;6223776;22;20019;-74
2023/06/07 02:21:37;;;;;;;10.02;3.55;;;10.30;99.90;;;;;;6276438;22;20016;-75
2023/06/07 02:24:06;;;;;;;9.82;3.50;;;10.30;99.90;;;;;;6277454;22;20460;-75
2023/06/07 02:26:33;;;;;;;10.70;4.40;;;10.20;99.90;;;;;;6277445;22;20039;-74
2023/06/07 02:28:59;;;;;;;8.23;4.07;;;10.20;99.90;;;;;;6303247;22;20450;-74
2023/06/07 02:31:25;;;;;;;9.65;4.38;;;10.20;99.90;;;;;;6279615;22;20027;-76
2023/06/07 02:33:51;;;;;;;9.23;3.97;;;10.20;99.90;;;;;;6279671;22;20018;-76
2023/06/07 02:36:25;;;;;;;9.25;4.18;;;10.20;99.90;;;;;;6279238;22;20073;-75
2023/06/07 02:38:53;;;;;;;8.65;3.60;;;10.20;99.90;;;;;;6304617;22;20011;-76
2023/06/07 02:41:19;;;;;;;8.45;3.60;;;10.30;99.90;;;;;;6302327;22;20018;-76
2023/06/07 02:43:44;;;;;;;7.63;3.75;;;10.30;99.90;;;;;;6277189;22;20012;-76
2023/06/07 02:46:13;;;;;;;9.75;4.10;;;10.30;99.90;;;;;;6277196;22;20319;-76
2023/06/07 02:48:39;;;;;;;8.07;3.95;;;10.30;99.90;;;;;;6277214;22;20011;-76
2023/06/07 02:51:04;;;;;;;9.50;3.97;;;10.30;99.90;;;;;;6251217;22;20007;-76
2023/06/07 02:53:30;;;;;;;9.80;4.25;;;10.30;99.90;;;;;;6253122;22;20066;-75
2023/06/07 02:55:56;;;;;;;10.55;5.28;;;10.30;99.90;;;;;;6278686;22;20012;-76
2023/06/07 02:58:22;;;;;;;11.27;4.20;;;10.30;99.90;;;;;;6277530;22;20047;-76
2023/06/07 03:00:49;;;;;;;9.88;4.30;;;10.40;99.90;;;;;;6277990;22;20091;-76
2023/06/07 03:03:16;;;;;;;8.18;3.80;;;10.40;99.90;;;;;;6252085;22;20030;-75
2023/06/07 03:05:44;;;;;;;8.85;4.07;;;10.40;99.90;;;;;;6252503;22;20042;-76
2023/06/07 03:08:10;;;;;;;8.77;4.05;;;10.40;99.90;;;;;;6251810;22;20015;-76
2023/06/07 03:10:36;;;;;;;8.05;4.20;;;10.30;99.90;;;;;;6277139;22;20342;-76
2023/06/07 03:13:02;;;;;;;9.07;4.72;;;10.30;99.90;;;;;;6276767;22;20086;-76
2023/06/07 03:15:28;;;;;;;7.32;3.75;;;10.30;99.90;;;;;;6279440;22;20011;-76
2023/06/07 03:17:54;;;;;;;10.10;4.82;;;10.30;99.90;;;;;;6226390;22;20018;-75
2023/06/07 03:20:20;;;;;;;9.30;4.32;;;10.30;99.90;;;;;;6303045;22;20015;-76
2023/06/07 03:22:46;;;;;;;8.40;3.80;;;10.40;99.90;;;;;;6226600;22;20014;-75
2023/06/07 03:25:12;;;;;;;11.38;4.32;;;10.30;99.90;;;;;;6276076;22;20007;-76
2023/06/07 03:27:38;;;;;;;10.95;5.05;;;10.30;99.90;;;;;;6226588;22;20083;-76
2023/06/07 03:30:05;;;;;;;10.18;3.83;;;10.40;99.90;;;;;;6277455;22;20046;-76
2023/06/07 03:32:30;;;;;;;9.70;4.22;;;10.40;99.90;;;;;;6226668;22;20090;-76
2023/06/07 03:34:56;;;;;;;9.65;3.97;;;10.50;99.90;;;;;;6225023;22;20571;-76
2023/06/07 03:37:21;;;;;;;8.45;3.83;;;10.50;99.90;;;;;;6278296;22;20034;-75
2023/06/07 03:39:47;;;;;;;8.95;4.13;;;10.50;99.90;;;;;;6249435;22;20115;-76
2023/06/07 03:42:12;;;;;;;11.73;5.00;;;10.50;99.90;;;;;;6277818;22;20019;-75
2023/06/07 03:44:38;;;;;;;10.75;4.40;;;10.50;99.90;;;;;;6250698;22;20014;-76
2023/06/07 03:47:04;;;;;;;13.35;4.88;;;10.60;99.90;;;;;;6250701;22;20449;-75
2023/06/07 03:49:29;;;;;;;11.70;4.88;;;10.50;99.90;;;;;;6250147;22;20521;-75
2023/06/07 03:51:55;;;;;;;12.40;4.57;;;10.50;99.90;;;;;;6302013;22;20034;-75
2023/06/07 03:54:20;;;;;;;13.70;5.20;;;10.50;99.90;;;;;;6224100;22;20018;-75
2023/06/07 03:56:46;;;;;;;11.40;4.47;;;10.50;99.90;;;;;;6302415;22;20027;-75
2023/06/07 03:59:13;;;;;;;13.65;4.82;;;10.70;99.90;;;;;;6275358;22;20390;-75
2023/06/07 04:01:39;;;;;;;13.70;4.45;;;10.60;99.90;;;;;;6250526;22;20020;-75
2023/06/07 04:04:05;;;;;;;12.90;4.80;;;10.60;99.90;;;;;;6224488;22;20091;-75
2023/06/07 04:06:31;;;;;;;14.13;5.05;;;10.70;99.90;;;;;;6277687;22;20023;-75
2023/06/07 04:08:57;;;;;;;11.10;4.32;;;10.70;99.90;;;;;;6277327;22;20077;-76
2023/06/07 04:11:24;;;;;;;15.15;4.75;;;10.70;99.90;;;;;;6301680;22;20035;-76
2023/06/07 04:13:50;;;;;;;15.57;4.50;;;10.80;99.90;;;;;;6224538;22;20087;-76
2023/06/07 04:16:15;;;;;;;13.00;4.57;;;10.80;99.90;;;;;;6278019;22;20377;-75
2023/06/07 04:18:41;;;;;;;14.15;4.65;;;10.80;99.90;;;;;;6224622;22;20510;-76
2023/06/07 04:21:07;;;;;;;12.90;3.88;;;10.70;99.90;;;;;;6301518;22;20019;-75
2023/06/07 04:23:33;;;;;;;12.48;4.03;;;10.80;99.90;;;;;;6277188;22;20012;-76
2023/06/07 04:25:59;;;;;;;14.55;4.65;;;10.80;99.90;;;;;;6225148;22;20091;-76
2023/06/07 04:28:25;;;;;;;14.38;4.45;;;10.90;99.90;;;;;;6248478;22;20019;-77
2023/06/07 04:30:57;;;;;;;12.75;4.28;;;10.90;99.90;;;;;;6249463;22;20008;-77
2023/06/07 04:33:23;;;;;;;14.55;4.70;;;11.00;99.90;;;;;;6275135;22;20093;-74
2023/06/07 04:35:50;;;;;;;16.55;4.88;;;11.00;99.90;;;;;;6249389;22;20018;-77
2023/06/07 04:38:23;;;;;;;15.45;5.28;;;11.10;99.90;;;;;;6224903;22;20061;-76
2023/06/07 04:40:50;;;;;;;11.57;4.57;;;11.20;99.90;;;;;;6249421;22;20407;-77
2023/06/07 04:43:18;;;;;;;11.63;4.25;;;11.20;99.90;;;;;;6249173;22;20008;-76
2023/06/07 04:45:46;;;;;;;15.68;5.13;;;11.20;99.90;;;;;;6249402;22;20492;-76
2023/06/07 04:48:12;;;;;;;17.27;5.35;;;11.30;99.90;;;;;;6249524;22;20015;-77
2023/06/07 04:50:41;;;;;;;14.50;4.70;;;11.40;99.90;;;;;;6224168;22;20082;-76
2023/06/07 04:53:08;;;;;;;14.52;4.22;;;11.40;99.90;;;;;;6249281;22;20076;-76
2023/06/07 04:55:34;;;;;;;16.13;4.93;;;11.50;99.90;;;;;;6249739;22;20016;-77
2023/06/07 04:58:04;;;;;;;15.13;5.15;;;11.50;99.90;;;;;;6248605;22;20453;-76
2023/06/07 05:00:33;;;;;;;15.75;5.00;;;11.60;99.90;;;;;;6223435;22;20345;-76
2023/06/07 05:03:06;;;;;;;14.55;4.20;;;11.60;99.90;;;;;;6275376;22;20097;-76
2023/06/07 05:05:37;;;;;;;11.45;4.57;;;11.70;99.90;;;;;;6248743;22;20012;-76
2023/06/07 05:08:05;;;;;;;15.05;4.40;;;11.80;99.90;;;;;;6301782;22;20012;-75
2023/06/07 05:10:30;;;;;;;13.88;4.18;;;11.80;99.90;;;;;;6276422;22;20011;-76
2023/06/07 05:12:56;;;;;;;14.10;4.60;;;11.90;99.90;;;;;;6276474;22;20060;-75
2023/06/07 05:15:23;;;;;;;14.27;4.45;;;11.90;99.90;;;;;;6273598;22;20090;-75
2023/06/07 05:17:49;;;;;;;18.10;4.25;;;12.00;99.90;;;;;;6274939;22;20499;-75
2023/06/07 05:20:16;;;;;;;15.63;4.07;;;12.00;99.90;;;;;;6222692;22;20016;-75
2023/06/07 05:22:42;;;;;;;13.45;4.03;;;12.10;99.90;;;;;;6223979;22;20004;-75
2023/06/07 05:25:10;;;;;;;12.77;4.63;;;12.10;99.90;;;;;;6275872;22;20367;-76
2023/06/07 05:27:37;;;;;;;16.80;4.85;;;12.20;99.90;;;;;;6276090;22;20350;-76
2023/06/07 05:30:07;;;;;;;12.45;4.32;;;12.30;99.90;;;;;;6243614;22;20433;-78
2023/06/07 05:32:36;;;;;;;13.82;4.13;;;12.30;99.90;;;;;;6221853;22;20453;-77
2023/06/07 05:35:03;;;;;;;11.93;3.42;;;12.40;99.90;;;;;;6273022;22;20023;-76
2023/06/07 05:37:33;;;;;;;14.75;4.32;;;12.50;99.90;;;;;;6248914;22;20007;-76
2023/06/07 05:39:58;;;;;;;11.63;3.60;;;12.50;99.90;;;;;;6220891;22;20093;-76
2023/06/07 05:42:24;;;;;;;11.95;3.65;;;12.50;99.90;;;;;;6274749;22;20047;-77
2023/06/07 05:44:50;;;;;;;14.75;4.63;;;12.60;99.90;;;;;;6248777;22;20345;-77
2023/06/07 05:47:17;;;;;;;12.23;3.65;;;12.60;99.90;;;;;;6273546;22;20120;-78
2023/06/07 05:49:43;;;;;;;12.23;3.63;;;12.70;99.90;;;;;;6223578;22;20007;-76
2023/06/07 05:52:09;;;;;;;13.27;3.60;;;12.70;99.90;;;;;;6298959;22;20464;-77
2023/06/07 05:54:38;;;;;;;16.48;3.88;;;12.70;99.90;;;;;;6248114;22;20012;-76
2023/06/07 05:57:04;;;;;;;12.90;3.92;;;12.90;99.90;;;;;;6274898;22;20012;-76
2023/06/07 05:59:29;;;;;;;12.73;4.15;;;13.00;99.90;;;;;;6299534;22;20004;-76
2023/06/07 06:01:58;;;;;;;18.38;4.30;;;13.10;99.90;;;;;;6249417;22;20015;-77
2023/06/07 06:04:28;;;;;;;13.75;3.88;;;13.20;99.90;;;;;;6221753;22;20012;-76
2023/06/07 06:06:53;;;;;;;13.07;3.42;;;13.30;99.90;;;;;;6246703;22;20019;-77
2023/06/07 06:09:19;;;;;;;15.27;3.95;;;13.30;99.90;;;;;;6276462;22;20011;-77
2023/06/07 06:11:45;;;;;;;11.23;3.33;;;13.30;99.90;;;;;;6274902;22;20014;-76
2023/06/07 06:14:10;;;;;;;18.52;3.75;;;13.30;99.90;;;;;;6275923;22;20043;-77
2023/06/07 06:16:36;;;;;;;11.35;3.65;;;13.30;99.90;;;;;;6300841;22;20023;-76
2023/06/07 06:19:02;;;;;;;12.27;3.72;;;13.40;99.90;;;;;;6249034;22;20012;-75
2023/06/07 06:21:27;;;;;;;11.57;3.40;;;13.40;99.90;;;;;;6300345;22;20046;-77
2023/06/07 06:23:53;;;;;;;9.77;4.07;;;13.40;99.90;;;;;;6222584;22;20011;-76
2023/06/07 06:26:18;;;;;;;12.98;3.80;;;13.50;99.90;;;;;;6247243;22;20015;-77
2023/06/07 06:28:44;;;;;;;16.40;3.65;;;13.50;99.90;;;;;;6276869;22;20008;-76
2023/06/07 06:31:10;;;;;;;11.90;3.22;;;13.50;99.90;;;;;;6298781;22;20090;-77
2023/06/07 06:33:35;;;;;;;10.50;3.47;;;13.60;99.90;;;;;;6274785;22;20011;-76
2023/06/07 06:36:01;;;;;;;12.32;3.88;;;13.60;99.90;;;;;;6300640;22;20012;-76
2023/06/07 06:38:26;;;;;;;12.35;3.50;;;13.60;99.90;;;;;;6300790;22;20023;-77
2023/06/07 06:40:52;;;;;;;14.18;3.40;;;13.70;99.90;;;;;;6275715;22;20376;-76
2023/06/07 06:43:17;;;;;;;11.10;3.28;;;13.60;99.90;;;;;;6248587;22;20011;-77
2023/06/07 06:45:44;;;;;;;13.80;3.55;;;13.60;99.90;;;;;;6248426;22;20012;-77
2023/06/07 06:48:10;;;;;;;9.75;3.42;;;13.60;99.90;;;;;;6247845;22;20039;-77
2023/06/07 06:50:35;;;;;;;14.55;4.20;;;13.60;99.90;;;;;;6247897;22;20057;-77
2023/06/07 06:53:01;;;;;;;9.68;2.90;;;13.60;99.90;;;;;;6274127;22;20454;-77
2023/06/07 06:55:27;;;;;;;9.00;3.28;;;13.60;99.90;;;;;;6274491;22;20015;-79
2023/06/07 06:57:52;;;;;;;13.35;3.90;;;13.60;99.90;;;;;;6248675;22;20437;-78
2023/06/07 07:00:18;;;;;;;16.67;4.05;;;13.70;99.90;;;;;;6276241;22;20008;-78
2023/06/07 07:02:44;;;;;;;11.40;3.35;;;13.70;99.90;;;;;;6298276;22;20087;-78
2023/06/07 07:05:10;;;;;;;16.48;4.13;;;13.50;99.90;;;;;;6248836;22;20489;-78
2023/06/07 07:07:35;;;;;;;13.85;3.75;;;13.80;99.90;;;;;;6248584;22;20090;-78
2023/06/07 07:10:01;;;;;;;11.82;3.58;;;14.00;99.90;;;;;;6224671;22;20087;-76
2023/06/07 07:12:27;;;;;;;12.15;3.67;;;14.20;99.90;;;;;;6278549;22;20330;-76
2023/06/07 07:14:53;;;;;;;11.60;3.80;;;14.40;99.90;;;;;;6302342;22;20035;-76
2023/06/07 07:17:19;;;;;;;10.70;3.35;;;14.60;99.90;;;;;;6248632;22;20003;-76
2023/06/07 07:19:45;;;;;;;12.00;3.85;;;14.80;99.90;;;;;;6224711;22;20057;-75
2023/06/07 07:22:11;;;;;;;12.60;3.92;;;14.80;99.90;;;;;;6276558;22;20012;-76
2023/06/07 07:24:36;;;;;;;16.42;4.35;;;14.90;99.90;;;;;;6250702;22;20034;-76
2023/06/07 07:27:02;;;;;;;12.90;3.50;;;14.90;99.90;;;;;;6250280;22;20408;-76
2023/06/07 07:29:28;;;;;;;12.73;3.85;;;15.00;99.90;;;;;;6225251;22;20008;-76
2023/06/07 07:31:53;;;;;;;9.10;3.60;;;15.20;99.90;;;;;;6250720;22;20054;-75
2023/06/07 07:34:19;;;;;;;13.52;3.65;;;15.20;99.90;;;;;;6301628;22;20082;-77
2023/06/07 07:36:45;;;;;;;13.02;3.78;;;15.30;99.90;;;;;;6277360;22;20058;-79
2023/06/07 07:39:11;;;;;;;11.52;4.10;;;15.40;99.90;;;;;;6275991;22;20353;-76
2023/06/07 07:41:40;;;;;;;14.70;3.78;;;15.40;99.90;;;;;;6224977;22;20514;-76
2023/06/07 07:44:05;;;;;;;12.38;3.70;;;15.50;99.90;;;;;;6278190;22;20008;-77
2023/06/07 07:46:31;;;;;;;15.68;3.42;;;15.60;99.90;;;;;;6301701;22;20015;-77
2023/06/07 07:48:57;;;;;;;13.52;4.15;;;15.60;99.90;;;;;;6275454;22;20012;-77
2023/06/07 07:51:22;;;;;;;14.10;3.13;;;15.70;99.90;;;;;;6250282;22;20118;-76
2023/06/07 07:53:48;;;;;;;13.90;3.75;;;15.80;99.90;;;;;;6274013;22;20016;-77
2023/06/07 07:56:14;;;;;;;14.25;3.40;;;15.90;99.90;;;;;;6276223;22;20047;-77
2023/06/07 07:58:39;;;;;;;12.65;4.00;;;15.90;99.90;;;;;;6276025;22;20080;-77
2023/06/07 08:01:08;;;;;;;11.50;3.92;;;16.00;99.90;;;;;;6250148;22;20012;-76
2023/06/07 08:03:34;;;;;;;15.48;4.20;;;16.00;99.90;;;;;;6275830;22;20011;-77
2023/06/07 08:06:01;;;;;;;10.05;3.70;;;16.20;99.90;;;;;;6250402;22;20096;-76
2023/06/07 08:08:26;;;;;;;11.35;3.55;;;16.20;99.90;;;;;;6300999;22;20016;-77
2023/06/07 08:10:52;;;;;;;11.93;3.75;;;16.20;99.90;;;;;;6300184;22;20015;-78
2023/06/07 08:13:18;;;;;;;11.70;3.38;;;16.20;99.90;;;;;;6276101;22;20091;-77
2023/06/07 08:15:45;;;;;;;9.80;3.55;;;16.30;99.90;;;;;;6301372;22;20050;-77
2023/06/07 08:18:11;;;;;;;11.52;3.40;;;16.40;99.90;;;;;;6250676;22;20034;-76
2023/06/07 08:20:37;;;;;;;12.85;3.88;;;16.40;99.90;;;;;;6301307;22;20450;-77
2023/06/07 08:23:03;;;;;;;12.73;3.88;;;16.40;99.90;;;;;;6275437;22;20015;-77
2023/06/07 08:25:29;;;;;;;13.57;3.70;;;16.50;99.90;;;;;;6301602;22;20004;-77
2023/06/07 08:27:54;;;;;;;11.50;3.65;;;16.60;99.90;;;;;;6274289;22;20011;-77
2023/06/07 08:30:20;;;;;;;14.38;4.03;;;16.60;99.90;;;;;;6249653;22;20017;-77
2023/06/07 08:32:46;;;;;;;13.50;3.42;;;16.70;99.90;;;;;;6274910;22;20024;-77
2023/06/07 08:35:11;;;;;;;10.52;3.70;;;16.80;99.90;;;;;;6302007;22;20011;-76
2023/06/07 08:37:37;;;;;;;11.05;3.50;;;16.80;99.90;;;;;;6277429;22;20030;-76
2023/06/07 08:40:06;;;;;;;11.60;3.80;;;16.90;99.90;;;;;;6275849;22;20069;-77
2023/06/07 08:42:32;;;;;;;13.98;4.25;;;16.90;99.90;;;;;;6275204;22;20091;-77
2023/06/07 08:44:59;;;;;;;11.05;3.50;;;17.00;99.90;;;;;;6249796;22;20442;-77
2023/06/07 08:47:27;;;;;;;11.75;3.85;;;17.10;99.90;;;;;;6223181;22;20099;-77
2023/06/07 08:49:56;;;;;;;12.73;3.30;;;17.20;99.90;;;;;;6224913;22;20350;-77
2023/06/07 08:52:23;;;;;;;10.57;3.60;;;17.30;99.90;;;;;;6224377;22;20342;-77
2023/06/07 08:54:49;;;;;;;11.27;3.63;;;17.40;99.90;;;;;;6224480;22;20008;-77
2023/06/07 08:57:16;;;;;;;10.45;3.90;;;17.40;99.90;;;;;;6224976;22;20014;-77
2023/06/07 08:59:47;;;;;;;9.95;3.40;;;17.50;99.90;;;;;;6275679;22;20577;-77
2023/06/07 09:02:13;;;;;;;12.63;3.80;;;17.60;99.90;;;;;;6276489;22;20334;-77
2023/06/07 09:04:40;;;;;;;12.73;3.83;;;17.60;99.90;;;;;;6275298;22;20065;-77
2023/06/07 09:07:07;;;;;;;13.20;3.92;;;17.70;99.90;;;;;;6249930;22;20018;-77
2023/06/07 09:09:35;;;;;;;10.85;3.60;;;17.70;99.90;;;;;;6224363;22;20004;-77
2023/06/07 09:12:00;;;;;;;9.85;3.13;;;17.90;99.90;;;;;;6276967;22;20016;-76
2023/06/07 09:14:29;;;;;;;11.60;3.92;;;17.90;99.90;;;;;;6300365;22;20016;-77
2023/06/07 09:16:58;;;;;;;12.18;4.10;;;18.00;99.90;;;;;;6249970;22;20015;-77
2023/06/07 09:19:41;;;;;;;12.65;4.20;;;18.00;99.90;;;;;;6249590;22;20384;-76
2023/06/07 09:22:17;;;;;;;10.48;3.83;;;18.00;99.90;;;;;;6247697;22;20453;-77
2023/06/07 09:24:42;;;;;;;10.65;3.17;;;18.10;99.90;;;;;;6224238;22;20077;-76
2023/06/07 09:27:09;;;;;;;11.25;3.95;;;18.30;99.90;;;;;;6273986;22;20445;-77
2023/06/07 09:29:42;;;;;;;12.95;3.88;;;18.30;99.90;;;;;;6301272;22;20007;-77
2023/06/07 09:32:26;;;;;;;11.15;3.65;;;18.30;99.90;;;;;;6249308;22;20405;-77
2023/06/07 09:35:09;;;;;;;12.13;3.65;;;18.50;99.90;;;;;;6249211;22;20350;-77
2023/06/07 09:37:57;;;;;;;16.45;4.53;;;18.40;99.90;;;;;;6250284;22;20016;-77
2023/06/07 09:40:23;;;;;;;12.35;4.30;;;18.60;99.90;;;;;;6248239;22;20016;-77
2023/06/07 09:42:59;;;;;;;12.80;4.53;;;18.60;99.90;;;;;;6250108;22;20310;-77
2023/06/07 09:45:26;;;;;;;10.85;3.95;;;18.70;99.90;;;;;;6249635;22;20004;-77
2023/06/07 09:48:11;;;;;;;12.30;4.43;;;18.70;99.90;;;;;;6249657;22;20063;-77
2023/06/07 09:50:37;;;;;;;12.38;4.28;;;18.80;99.90;;;;;;6223531;22;20015;-77
2023/06/07 09:53:03;;;;;;;12.30;4.40;;;18.90;99.90;;;;;;6300922;22;20018;-77
2023/06/07 09:55:29;;;;;;;11.13;3.72;;;18.80;99.90;;;;;;6298915;22;20016;-78
2023/06/07 09:57:55;;;;;;;10.02;3.72;;;19.00;99.90;;;;;;6250052;22;20345;-78
2023/06/07 10:00:21;;;;;;;13.38;3.65;;;18.90;99.90;;;;;;6249757;22;20016;-78
2023/06/07 10:02:50;;;;;;;11.13;3.20;;;18.90;99.90;;;;;;6223536;22;20137;-78
2023/06/07 10:05:16;;;;;;;13.07;4.18;;;19.00;99.90;;;;;;6248751;22;20088;-78
2023/06/07 10:07:47;;;;;;;14.75;4.65;;;19.00;99.90;;;;;;6249857;22;20389;-78
2023/06/07 10:10:15;;;;;;;16.90;4.17;;;19.10;99.90;;;;;;6224287;22;20012;-77
2023/06/07 10:12:43;;;;;;;13.07;4.30;;;19.20;99.90;;;;;;6221126;22;20018;-77
2023/06/07 10:15:14;;;;;;;11.65;4.32;;;19.30;99.90;;;;;;6248843;22;20007;-77
2023/06/07 10:17:53;;;;;;;12.07;4.15;;;19.30;99.90;;;;;;6249134;22;20082;-78
2023/06/07 10:20:40;;;;;;;11.80;4.07;;;19.40;99.90;;;;;;6299747;22;20012;-78
2023/06/07 10:23:10;;;;;;;12.85;4.60;;;19.40;99.90;;;;;;6248758;22;20476;-78
2023/06/07 10:25:49;;;;;;;12.65;4.18;;;19.40;99.90;;;;;;6249235;22;20012;-77
2023/06/07 10:28:36;;;;;;;14.27;3.90;;;19.50;99.90;;;;;;6222377;22;20012;-77
2023/06/07 10:31:05;;;;;;;11.73;3.55;;;19.50;99.90;;;;;;6249552;22;20014;-77
2023/06/07 10:33:35;;;;;;;9.82;3.80;;;19.50;99.90;;;;;;6248753;22;20074;-77
2023/06/07 10:36:01;;;;;;;12.93;3.88;;;19.60;99.90;;;;;;6248730;22;20019;-77
2023/06/07 10:38:30;;;;;;;11.40;3.55;;;19.40;99.90;;;;;;6224169;22;20070;-77
2023/06/07 10:40:57;;;;;;;10.15;3.85;;;19.60;99.90;;;;;;6249267;22;20023;-77
2023/06/07 10:43:27;;;;;;;12.38;4.20;;;19.60;99.90;;;;;;6249192;22;20334;-77
2023/06/07 10:46:19;;;;;;;11.32;3.90;;;19.70;99.90;;;;;;6249427;22;20069;-77
2023/06/07 10:48:45;;;;;;;10.77;3.70;;;19.80;99.90;;;;;;6251810;22;20039;-77
2023/06/07 10:51:12;;;;;;;11.93;4.57;;;19.90;99.90;;;;;;6250306;22;20020;-86
2023/06/07 10:53:56;;;;;;;12.40;3.85;;;20.00;99.90;;;;;;6250906;22;20100;-75
2023/06/07 10:56:29;;;;;;;12.13;3.80;;;19.90;99.90;;;;;;6250664;22;20019;-75
2023/06/07 10:58:57;;;;;;;11.63;4.20;;;19.90;99.90;;;;;;6225408;22;20022;-75
2023/06/07 11:01:25;;;;;;;14.55;4.40;;;20.00;99.90;;;;;;6251178;22;20015;-75
2023/06/07 11:03:52;;;;;;;11.80;4.10;;;19.90;99.90;;;;;;6250019;22;20008;-75
2023/06/07 11:06:18;;;;;;;14.52;3.97;;;20.00;99.90;;;;;;6225514;22;20015;-75
2023/06/07 11:08:43;;;;;;;11.90;3.83;;;20.00;99.90;;;;;;6302516;22;20014;-75
2023/06/07 11:11:40;;;;;;;11.02;4.00;;;20.10;99.90;;;;;;6302291;22;20012;-75
2023/06/07 11:14:05;;;;;;;13.63;4.70;;;20.20;99.90;;;;;;6250132;22;20015;-75
2023/06/07 11:16:31;;;;;;;13.77;4.50;;;20.10;99.90;;;;;;6302349;22;20011;-75
2023/06/07 11:19:05;;;;;;;9.60;3.80;;;20.10;99.90;;;;;;6302377;22;20020;-75
2023/06/07 11:21:53;;;;;;;12.15;3.70;;;20.10;99.90;;;;;;6249317;22;20012;-75
2023/06/07 11:24:19;;;;;;;12.40;3.88;;;20.10;99.90;;;;;;6277372;22;20008;-75
2023/06/07 11:26:45;;;;;;;11.05;3.85;;;20.20;99.90;;;;;;6251131;22;20306;-75
2023/06/07 11:29:13;;;;;;;13.18;4.43;;;20.20;99.90;;;;;;6250248;22;20061;-75
2023/06/07 11:31:39;;;;;;;10.88;3.85;;;20.20;99.90;;;;;;6250596;22;20012;-76
2023/06/07 11:34:04;;;;;;;14.98;4.95;;;20.30;99.90;;;;;;6277502;22;20086;-75
2023/06/07 11:36:31;;;;;;;12.75;4.45;;;20.20;99.90;;;;;;6300019;22;20019;-74
2023/06/07 11:38:59;;;;;;;9.77;4.03;;;20.20;99.90;;;;;;6249856;22;20437;-74
2023/06/07 11:41:25;;;;;;;12.57;4.20;;;20.20;99.90;;;;;;6249331;22;20018;-75
2023/06/07 11:43:51;;;;;;;13.57;4.72;;;20.40;99.90;;;;;;6301237;22;20008;-75
2023/06/07 11:46:17;;;;;;;12.38;4.03;;;20.30;99.90;;;;;;6301008;22;20465;-75
2023/06/07 11:48:43;;;;;;;11.32;4.40;;;20.20;99.90;;;;;;6246893;22;20007;-75
2023/06/07 11:51:09;;;;;;;13.30;4.95;;;20.20;99.90;;;;;;6298372;22;20461;-75
2023/06/07 11:53:35;;;;;;;11.68;4.38;;;20.20;99.90;;;;;;6276378;22;20027;-75
2023/06/07 11:56:02;;;;;;;10.05;4.18;;;20.30;99.90;;;;;;6248190;22;20020;-74
2023/06/07 11:58:28;;;;;;;12.50;3.92;;;20.20;99.90;;;;;;6298846;22;20090;-74
2023/06/07 12:00:56;;;;;;;10.73;4.65;;;20.20;99.90;;;;;;6249672;22;20048;-75
2023/06/07 12:03:22;;;;;;;16.15;4.53;;;20.30;99.90;;;;;;6273587;22;20441;-74
2023/06/07 12:05:48;;;;;;;12.73;4.38;;;20.30;99.90;;;;;;6248928;22;20449;-74
2023/06/07 12:08:16;;;;;;;13.52;4.57;;;20.20;99.90;;;;;;6223267;22;20011;-74
2023/06/07 12:10:45;;;;;;;12.05;4.00;;;20.10;99.90;;;;;;6250787;22;20015;-74
2023/06/07 12:13:11;;;;;;;10.77;4.13;;;20.10;99.90;;;;;;6224669;22;20098;-74
2023/06/07 12:15:46;;;;;;;11.27;5.00;;;20.10;99.90;;;;;;6249648;22;20051;-75
2023/06/07 12:18:19;;;;;;;12.57;5.22;;;20.20;99.90;;;;;;6249978;22;20048;-74
2023/06/07 12:20:46;;;;;;;12.23;4.38;;;20.30;99.90;;;;;;6224494;22;20012;-75
2023/06/07 12:23:14;;;;;;;14.70;4.93;;;20.20;99.90;;;;;;6223131;22;20011;-75
2023/06/07 12:25:41;;;;;;;10.85;4.20;;;20.10;99.90;;;;;;6223623;22;20036;-75
2023/06/07 12:28:13;;;;;;;12.68;4.90;;;20.10;99.90;;;;;;6224419;22;20489;-75
2023/06/07 12:30:40;;;;;;;;;;;20.10;99.90;;;;;;6224328;22;20043;-75
2023/06/07 12:33:17;;;;;;;10.02;3.88;;;20.10;99.90;;;;;;6300552;22;19973;-75
2023/06/07 12:35:47;;;;;;;14.15;4.72;;;20.00;99.90;;;;;;6248766;22;20012;-75
2023/06/07 12:38:13;;;;;;;13.50;4.18;;;20.00;99.90;;;;;;6249098;22;20417;-75
2023/06/07 12:40:39;;;;;;;13.15;4.30;;;20.20;99.90;;;;;;6248988;22;20412;-75
2023/06/07 12:43:05;;;;;;;10.55;4.05;;;20.20;99.90;;;;;;6224312;22;20012;-75